Search for airport 
image banner adimage banner adimage banner ad
image banner ad

5PS6 - Ranch Road

Located in Slatington, United States

ICAO - 5PS6, IATA -

Data provided by Airmate  

General information

Coordinates: N40°43'33" W75°34'34"
Elevation is 600 feet MSL.
 
View others Airports in Pennsylvania

Operational data

Special qualification required
Current time UTC:
Current local time:
Weather at : KABE - Lehigh Valley Intl ( 14 km )
METAR: KABE 091151Z 24006KT 10SM CLR 08/04 A3009 RMK AO2 SLP191 70001 T00780039 10078 20033 51012 $
TAF: KABE 091120Z 0912/1012 VRB03KT P6SM SCT250 FM091900 15005KT 6SM -RA OVC015 TEMPO 0919/0921 3SM -RA BR OVC010 FM100000 08006KT P6SM VCSH OVC035 FM100600 09005KT P6SM OVC040 WS020/23040KT
View NOTAMs / SUP AIP / TFR affecting this airport [VIEW]
Communications frequencies: [VIEW]

Runways:

Airport contact information

Address: Slatington United States

Satellite view of 5PS6